createdAt,value
2023-03-01T16:41:49.395Z,1.52
2023-03-01T16:44:16.431Z,1.44
2023-03-01T16:46:44.013Z,1.40
2023-03-01T16:49:10.775Z,1.36
2023-03-01T16:51:38.145Z,1.30
2023-03-01T16:54:04.998Z,1.25
2023-03-01T16:56:35.135Z,1.20
2023-03-01T16:59:04.438Z,1.14
2023-03-01T17:01:35.432Z,1.09
2023-03-01T17:04:02.387Z,1.04
2023-03-01T17:06:29.413Z,0.99
2023-03-01T17:08:57.475Z,0.94
2023-03-01T17:11:28.618Z,0.89
2023-03-01T17:13:56.063Z,0.86
2023-03-01T17:16:23.943Z,0.87
2023-03-01T17:18:53.600Z,0.89
2023-03-01T17:21:20.601Z,0.91
2023-03-01T17:23:49.742Z,0.90
2023-03-01T17:26:19.136Z,0.88
2023-03-01T17:28:51.337Z,0.85
2023-03-01T17:31:19.379Z,0.80
2023-03-01T17:33:46.789Z,0.75
2023-03-01T17:36:14.297Z,0.71
2023-03-01T17:38:42.601Z,0.65
2023-03-01T17:41:11.641Z,0.60
2023-03-01T17:43:38.764Z,0.55
2023-03-01T17:46:05.579Z,0.49
2023-03-01T17:48:32.397Z,0.44
2023-03-01T17:51:18.920Z,0.41
2023-03-01T17:53:45.725Z,0.40
2023-03-01T17:56:12.722Z,0.41
2023-03-01T17:58:39.484Z,0.42
2023-03-01T18:01:13.453Z,0.41
2023-03-01T18:03:41.115Z,0.38
2023-03-01T18:06:18.777Z,0.35
2023-03-01T18:08:46.499Z,0.31
2023-03-01T18:11:13.818Z,0.27
2023-03-01T18:13:43.061Z,0.22
2023-03-01T18:16:12.079Z,0.17
2023-03-01T18:18:40.167Z,0.12
2023-03-01T18:21:07.200Z,0.09
2023-03-01T18:23:34.817Z,0.07
2023-03-01T18:26:03.749Z,0.08
2023-03-01T18:28:31.740Z,0.10
2023-03-01T18:31:10.320Z,0.11
2023-03-01T18:33:39.481Z,0.11
2023-03-01T18:36:13.370Z,0.10
2023-03-01T18:38:40.058Z,0.08
2023-03-01T18:41:06.959Z,0.05
2023-03-01T18:43:35.081Z,0.02
2023-03-01T18:46:04.648Z,-0.02
2023-03-01T18:48:32.564Z,-0.06
2023-03-01T18:51:07.750Z,-0.09
2023-03-01T18:53:34.909Z,-0.09
2023-03-01T18:56:01.778Z,-0.08
2023-03-01T18:58:28.819Z,-0.06
2023-03-01T19:00:55.975Z,-0.04
2023-03-01T19:03:22.772Z,-0.03
2023-03-01T19:05:49.448Z,-0.05
2023-03-01T19:08:17.407Z,-0.08
2023-03-01T19:10:45.524Z,-0.10
2023-03-01T19:13:12.496Z,-0.13
2023-03-01T19:15:39.559Z,-0.18
2023-03-01T19:18:09.024Z,-0.21
2023-03-01T19:20:37.795Z,-0.22
2023-03-01T19:23:05.861Z,-0.23
2023-03-01T19:25:33.619Z,-0.22
2023-03-01T19:28:00.327Z,-0.20
2023-03-01T19:30:27.179Z,-0.21
2023-03-01T19:32:53.958Z,-0.22
2023-03-01T19:35:23.223Z,-0.24
2023-03-01T19:37:50.663Z,-0.26
2023-03-01T19:40:18.929Z,-0.29
2023-03-01T19:42:45.808Z,-0.32
2023-03-01T19:45:13.603Z,-0.35
2023-03-01T19:47:41.073Z,-0.38
2023-03-01T19:50:09.023Z,-0.39
2023-03-01T19:52:40.354Z,-0.38
2023-03-01T19:55:10.072Z,-0.34
2023-03-01T19:57:37.072Z,-0.30
2023-03-01T20:00:05.326Z,-0.26
2023-03-01T20:02:39.458Z,-0.25
2023-03-01T20:05:06.538Z,-0.25
2023-03-01T20:07:34.908Z,-0.26
2023-03-01T20:10:01.740Z,-0.27
2023-03-01T20:12:29.020Z,-0.29
2023-03-01T20:14:59.227Z,-0.31
2023-03-01T20:17:27.876Z,-0.34
2023-03-01T20:19:54.841Z,-0.36
2023-03-01T20:22:25.001Z,-0.36
2023-03-01T20:24:51.788Z,-0.36
2023-03-01T20:27:20.869Z,-0.32
2023-03-01T20:29:48.225Z,-0.30
2023-03-01T20:32:14.980Z,-0.29
2023-03-01T20:34:44.482Z,-0.28
2023-03-01T20:37:11.504Z,-0.28
2023-03-01T20:39:40.013Z,-0.28
2023-03-01T20:42:07.500Z,-0.29
2023-03-01T20:44:34.412Z,-0.30
2023-03-01T20:47:01.125Z,-0.32
2023-03-01T20:49:27.991Z,-0.32
2023-03-01T20:51:54.854Z,-0.33
2023-03-01T20:54:27.330Z,-0.31
2023-03-01T20:56:54.804Z,-0.29
2023-03-01T20:59:22.775Z,-0.24
2023-03-01T21:01:51.036Z,-0.17
2023-03-01T21:04:18.546Z,-0.12
2023-03-01T21:06:46.469Z,-0.09
2023-03-01T21:09:13.751Z,-0.06
2023-03-01T21:11:40.701Z,-0.06
2023-03-01T21:14:08.539Z,-0.07
2023-03-01T21:16:35.832Z,-0.07
2023-03-01T21:19:04.513Z,-0.08
2023-03-01T21:21:32.687Z,-0.09
2023-03-01T21:24:04.116Z,-0.10
2023-03-01T21:26:31.089Z,-0.12
2023-03-01T21:29:02.653Z,-0.14
2023-03-01T21:31:33.134Z,-0.14
2023-03-01T21:34:03.462Z,-0.13
2023-03-01T21:36:30.893Z,-0.09
2023-03-01T21:38:59.881Z,-0.05
2023-03-01T21:41:29.135Z,-0.04
2023-03-01T21:43:56.938Z,-0.04
2023-03-01T21:46:24.544Z,-0.04
2023-03-01T21:48:54.162Z,-0.04
2023-03-01T21:51:21.970Z,-0.04
2023-03-01T21:53:50.079Z,-0.03
2023-03-01T21:56:18.655Z,-0.05
2023-03-01T21:58:45.554Z,-0.04
2023-03-01T22:01:14.760Z,-0.03
2023-03-01T22:03:45.127Z,0.00
2023-03-01T22:06:19.567Z,0.06
2023-03-01T22:08:48.842Z,0.12
2023-03-01T22:11:17.775Z,0.18
2023-03-01T22:13:48.712Z,0.22
2023-03-01T22:16:16.088Z,0.26
2023-03-01T22:18:43.060Z,0.28
2023-03-01T22:21:10.568Z,0.30
2023-03-01T22:23:37.737Z,0.31
2023-03-01T22:26:04.549Z,0.31
2023-03-01T22:28:31.294Z,0.30
2023-03-01T22:30:59.313Z,0.30
2023-03-01T22:33:26.222Z,0.30
2023-03-01T22:35:56.072Z,0.31
2023-03-01T22:38:23.658Z,0.33
2023-03-01T22:40:58.306Z,0.36
2023-03-01T22:43:25.495Z,0.42
2023-03-01T22:45:52.289Z,0.48
2023-03-01T22:48:22.596Z,0.55
2023-03-01T22:50:49.306Z,0.57
2023-03-01T22:53:16.054Z,0.58
2023-03-01T22:55:44.238Z,0.58
2023-03-01T22:58:12.491Z,0.57
2023-03-01T23:00:39.127Z,0.56
2023-03-01T23:03:12.000Z,0.55
2023-03-01T23:05:41.144Z,0.55
2023-03-01T23:08:08.602Z,0.54
2023-03-01T23:10:40.383Z,0.55
2023-03-01T23:13:07.405Z,0.56
2023-03-01T23:15:37.365Z,0.60
2023-03-01T23:18:04.377Z,0.65
2023-03-01T23:20:35.432Z,0.69
2023-03-01T23:23:03.317Z,0.71
2023-03-01T23:25:29.969Z,0.71
2023-03-01T23:27:56.749Z,0.71
2023-03-01T23:30:23.440Z,0.70
2023-03-01T23:32:53.253Z,0.68
2023-03-01T23:35:19.996Z,0.66
2023-03-01T23:37:46.635Z,0.65
2023-03-01T23:40:13.696Z,0.64
2023-03-01T23:42:40.751Z,0.63
2023-03-01T23:45:09.578Z,0.64
2023-03-01T23:47:37.075Z,0.67
2023-03-01T23:50:05.227Z,0.70
2023-03-01T23:52:37.694Z,0.72
2023-03-01T23:55:05.374Z,0.71
2023-03-01T23:57:35.582Z,0.68
